Time;durP1;ratioP1;P1;durP2;ratioP2;P2;SDS_P1;SDS_P2;PMS_P1;PMS_P2;Temp;Humidity;BMP_temperature;BMP_pressure;BME280_temperature;BME280_humidity;BME280_pressure;Samples;Min_cycle;Max_cycle;Signal;HPM_P1;HPM_P2
2022/01/29 00:03:13;;;;;;;6.78;2.92;;;;;;;;;;6233847;23;20035;-96
2022/01/29 00:08:36;;;;;;;;;;;;;;;;;;6239485;22;20031;-95
2022/01/29 00:14:06;;;;;;;4.15;1.50;;;;;;;;;;6221777;22;20104;-96
2022/01/29 00:19:48;;;;;;;11.18;3.30;;;;;;;;;;6231709;22;20082;-93
2022/01/29 00:22:15;;;;;;;9.80;2.05;;;;;;;;;;6245666;23;20513;-95
2022/01/29 00:24:43;;;;;;;13.90;3.43;;;;;;;;;;6212319;23;20339;-95
2022/01/29 00:27:48;;;;;;;9.00;3.10;;;3.00;97.00;;;;;;6217914;23;20569;-96
2022/01/29 00:30:18;;;;;;;16.02;3.88;;;;;;;;;;6242385;23;20011;-95
2022/01/29 00:35:39;;;;;;;11.32;3.35;;;;;;;;;;6230029;22;20077;-94
2022/01/29 00:38:07;;;;;;;6.80;2.58;;;;;;;;;;6218826;23;20043;-94
2022/01/29 00:49:47;;;;;;;4.72;3.08;;;3.10;96.20;;;;;;6222578;23;20480;-94
2022/01/29 00:52:22;;;;;;;6.65;2.47;;;;;;;;;;6245290;23;20008;-93
2022/01/29 00:58:19;;;;;;;4.95;2.53;;;;;;;;;;6239813;23;20024;-96
2022/01/29 01:00:46;;;;;;;8.70;3.03;;;;;;;;;;6217311;23;20004;-91
2022/01/29 01:03:12;;;;;;;14.97;5.33;;;;;;;;;;6215193;23;20032;-96
2022/01/29 01:05:48;;;;;;;5.00;3.15;;;;;;;;;;6214864;23;20028;-96
2022/01/29 01:08:20;;;;;;;13.60;4.55;;;;;;;;;;6218262;23;20022;-96
2022/01/29 01:10:49;;;;;;;4.78;1.90;;;;;;;;;;6216757;23;20506;-96
2022/01/29 01:13:17;;;;;;;6.00;3.08;;;;;;;;;;6211992;23;20118;-94
2022/01/29 01:16:11;;;;;;;15.10;5.18;;;3.40;95.60;;;;;;6212143;23;20578;-93
2022/01/29 01:18:40;;;;;;;9.75;3.15;;;;;;;;;;6242414;23;20001;-93
2022/01/29 01:21:13;;;;;;;7.50;2.65;;;;;;;;;;6217350;23;20008;-94
2022/01/29 01:23:41;;;;;;;10.32;4.22;;;;;;;;;;6212449;23;20540;-95
2022/01/29 01:26:18;;;;;;;8.32;4.07;;;;;;;;;;6240333;23;20154;-94
2022/01/29 01:28:50;;;;;;;11.05;3.45;;;;;;;;;;6217399;23;20087;-94
2022/01/29 01:31:20;;;;;;;12.90;3.47;;;;;;;;;;6241027;23;20401;-95
2022/01/29 01:36:56;;;;;;;8.43;3.80;;;;;;;;;;6236939;23;20050;-95
2022/01/29 01:39:27;;;;;;;8.18;2.80;;;;;;;;;;6218124;23;20000;-93
2022/01/29 01:42:03;;;;;;;14.13;5.30;;;;;;;;;;6217926;23;20091;-95
2022/01/29 01:44:50;;;;;;;7.18;3.17;;;;;;;;;;6210290;23;20008;-95
2022/01/29 01:53:01;;;;;;;6.82;3.55;;;;;;;;;;6236221;22;20047;-96
2022/01/29 01:55:28;;;;;;;7.70;3.30;;;;;;;;;;6238312;23;20008;-93
2022/01/29 01:57:57;;;;;;;7.40;2.72;;;;;;;;;;6217678;23;20439;-95
2022/01/29 02:00:29;;;;;;;4.70;2.22;;;;;;;;;;6244821;23;20008;-93
2022/01/29 02:05:45;;;;;;;6.60;2.88;;;;;;;;;;6234485;22;20104;-95
2022/01/29 02:29:16;;;;;;;4.35;2.30;;;;;;;;;;6244754;23;20222;-93
2022/01/29 02:40:15;;;;;;;5.15;2.60;;;;;;;;;;6240335;22;20056;-93
2022/01/29 02:42:42;;;;;;;5.00;3.40;;;;;;;;;;6220125;23;20031;-94
2022/01/29 02:45:08;;;;;;;;;;;2.30;94.50;;;;;;6231446;23;20012;-93
2022/01/29 02:58:53;;;;;;;13.48;3.55;;;;;;;;;;6232984;22;20032;-94
2022/01/29 03:12:49;;;;;;;7.47;2.20;;;;;;;;;;6233447;22;20027;-94
2022/01/29 03:15:15;;;;;;;13.52;2.75;;;;;;;;;;6239336;23;20016;-93
2022/01/29 03:18:01;;;;;;;4.78;2.67;;;;;;;;;;6219343;23;20435;-94
2022/01/29 03:20:30;;;;;;;7.15;3.35;;;;;;;;;;6244501;23;20027;-94
2022/01/29 03:22:59;;;;;;;7.50;2.72;;;;;;;;;;6243528;23;20023;-94
2022/01/29 03:25:28;;;;;;;7.10;2.92;;;;;;;;;;6213996;23;20004;-95
2022/01/29 03:27:57;;;;;;;6.32;3.05;;;;;;;;;;6246818;23;20080;-95
2022/01/29 03:30:29;;;;;;;7.95;2.67;;;;;;;;;;6243781;23;20004;-94
2022/01/29 03:32:58;;;;;;;11.48;3.22;;;;;;;;;;6242160;23;20004;-95
2022/01/29 03:35:29;;;;;;;5.85;2.95;;;;;;;;;;6240332;23;20015;-95
2022/01/29 03:38:24;;;;;;;7.00;2.95;;;3.00;95.00;;;;;;6246475;23;20020;-94
2022/01/29 03:43:46;;;;;;;7.55;4.32;;;;;;;;;;6241735;23;20015;-95
2022/01/29 03:49:55;;;;;;;8.38;3.20;;;3.10;95.40;;;;;;6242396;22;20032;-95
2022/01/29 03:52:21;;;;;;;16.65;4.18;;;;;;;;;;6217670;23;20062;-94
2022/01/29 03:54:48;;;;;;;6.93;3.20;;;;;;;;;;6238516;23;20008;-94
2022/01/29 04:00:05;;;;;;;13.90;4.10;;;;;;;;;;6240070;22;20024;-95
2022/01/29 04:05:47;;;;;;;9.50;3.55;;;;;;;;;;6232396;22;20027;-94
2022/01/29 04:08:16;;;;;;;10.05;3.20;;;;;;;;;;6219327;23;20087;-96
2022/01/29 04:10:42;;;;;;;8.10;3.95;;;;;;;;;;6218969;23;20008;-94
2022/01/29 04:13:12;;;;;;;9.18;3.70;;;;;;;;;;6241492;23;20004;-94
2022/01/29 04:15:38;;;;;;;9.82;4.07;;;2.60;96.20;;;;;;6217162;23;20449;-94
2022/01/29 04:18:04;;;;;;;5.70;2.65;;;;;;;;;;6245991;23;20007;-95
2022/01/29 04:20:31;;;;;;;11.10;3.75;;;;;;;;;;6218910;23;20008;-92
2022/01/29 04:23:00;;;;;;;9.43;4.65;;;;;;;;;;6218847;23;20016;-95
2022/01/29 04:25:26;;;;;;;11.35;3.75;;;;;;;;;;6243522;23;20008;-95
2022/01/29 04:27:52;;;;;;;13.18;4.45;;;;;;;;;;6221695;23;20082;-94
2022/01/29 04:30:29;;;;;;;12.13;3.75;;;;;;;;;;6222468;23;20004;-94
2022/01/29 04:50:35;;;;;;;5.03;3.05;;;;;;;;;;6212792;22;20474;-93
2022/01/29 04:53:01;;;;;;;10.05;2.58;;;;;;;;;;6243646;23;20015;-95
2022/01/29 04:55:27;;;;;;;11.18;2.78;;;;;;;;;;6216597;23;20008;-93
2022/01/29 04:57:54;;;;;;;6.40;2.63;;;;;;;;;;6245991;23;20005;-95
2022/01/29 05:00:20;;;;;;;9.30;3.03;;;;;;;;;;6248454;23;19992;-96
2022/01/29 05:02:48;;;;;;;7.90;3.33;;;2.40;95.50;;;;;;6245405;23;20011;-96
2022/01/29 05:29:33;;;;;;;12.50;4.47;;;;;;;;;;6219661;22;20028;-95
2022/01/29 05:32:04;;;;;;;8.57;3.27;;;;;;;;;;6249754;23;20004;-96
2022/01/29 05:34:30;;;;;;;12.05;4.13;;;;;;;;;;6225739;23;20239;-96
2022/01/29 05:36:56;;;;;;;11.55;3.63;;;;;;;;;;6227108;23;20004;-93
2022/01/29 05:39:24;;;;;;;7.28;3.00;;;;;;;;;;6251730;23;20064;-96
2022/01/29 05:41:50;;;;;;;6.88;3.67;;;;;;;;;;6226670;23;20008;-96
2022/01/29 05:44:17;;;;;;;6.43;3.23;;;;;;;;;;6249049;23;20054;-94
2022/01/29 05:46:43;;;;;;;14.18;5.05;;;;;;;;;;6218037;23;20004;-96
2022/01/29 05:52:00;;;;;;;6.80;3.60;;;;;;;;;;6236448;22;20086;-95
2022/01/29 05:57:17;;;;;;;9.23;3.03;;;;;;;;;;6205805;23;20030;-95
2022/01/29 06:02:30;;;;;;;4.18;3.40;;;;;;;;;;6232900;22;20076;-94
2022/01/29 06:07:47;;;;;;;11.40;4.95;;;;;;;;;;6237058;22;20028;-93
2022/01/29 06:10:13;;;;;;;5.20;3.70;;;;;;;;;;6245256;23;20012;-94
2022/01/29 06:12:39;;;;;;;9.23;3.58;;;;;;;;;;6247124;23;20036;-94
2022/01/29 06:15:06;;;;;;;6.88;3.35;;;;;;;;;;6216573;23;20016;-93
2022/01/29 06:17:32;;;;;;;8.60;4.05;;;;;;;;;;6220697;23;20431;-96
2022/01/29 06:19:58;;;;;;;16.67;5.40;;;;;;;;;;6228957;23;20091;-93
2022/01/29 06:22:24;;;;;;;9.50;3.38;;;;;;;;;;6237576;23;20008;-93
2022/01/29 06:24:50;;;;;;;12.10;5.35;;;;;;;;;;6257166;23;20022;-95
2022/01/29 06:27:16;;;;;;;19.92;5.75;;;;;;;;;;6227732;23;20028;-93
2022/01/29 06:29:43;;;;;;;11.00;5.35;;;;;;;;;;6260620;23;20023;-91
2022/01/29 06:32:09;;;;;;;6.88;3.00;;;;;;;;;;6269264;22;20012;-91
2022/01/29 07:14:01;;;;;;;21.40;6.13;;;;;;;;;;6230556;22;20040;-96
2022/01/29 07:25:27;;;;;;;17.50;7.28;;;;;;;;;;6234896;23;20031;-95
2022/01/29 07:27:53;;;;;;;15.10;4.75;;;;;;;;;;6245475;22;20039;-93
2022/01/29 07:30:19;;;;;;;8.10;4.53;;;;;;;;;;6218473;23;20005;-93
2022/01/29 07:32:46;;;;;;;9.27;3.95;;;;;;;;;;6244954;23;20023;-94
2022/01/29 07:35:12;;;;;;;8.98;4.68;;;;;;;;;;6216027;23;20012;-93
2022/01/29 07:37:38;;;;;;;13.32;4.05;;;;;;;;;;6220063;23;20031;-94
2022/01/29 07:45:43;;;;;;;13.90;5.50;;;;;;;;;;6237999;22;20030;-96
2022/01/29 08:04:47;;;;;;;10.00;4.32;;;;;;;;;;6212444;22;20094;-93
2022/01/29 08:07:13;;;;;;;10.70;4.55;;;;;;;;;;6220334;23;20075;-93
2022/01/29 08:09:39;;;;;;;6.57;3.15;;;;;;;;;;6246881;23;20085;-94
2022/01/29 08:12:06;;;;;;;7.30;4.35;;;;;;;;;;6219595;23;20094;-95
2022/01/29 08:14:32;;;;;;;10.68;5.25;;;;;;;;;;6220190;23;20451;-94
2022/01/29 08:16:58;;;;;;;12.07;3.80;;;;;;;;;;6224136;23;20481;-93
2022/01/29 08:19:24;;;;;;;6.30;3.28;;;;;;;;;;6247583;23;20095;-94
2022/01/29 08:21:50;;;;;;;8.95;3.90;;;;;;;;;;6219592;23;20008;-95
2022/01/29 08:24:17;;;;;;;12.63;4.22;;;;;;;;;;6248122;23;20491;-95
2022/01/29 08:49:46;;;;;;;9.20;2.95;;;;;;;;;;6236685;23;20115;-95
2022/01/29 11:14:09;;;;;;;6.97;2.65;;;;;;;;;;6248773;22;20028;-96
2022/01/29 11:16:35;;;;;;;;;;;;;;;;;;6234438;23;20042;-96
2022/01/29 11:19:36;;;;;;;12.88;4.78;;;;;;;;;;6259295;23;20318;-96
2022/01/29 11:27:55;;;;;;;8.77;3.35;;;;;;;;;;6184391;22;20036;-96
2022/01/29 11:30:34;;;;;;;9.20;3.17;;;;;;;;;;6237417;23;20012;-96
2022/01/29 11:36:49;;;;;;;5.63;3.05;;;;;;;;;;6266162;23;20015;-96
2022/01/29 11:48:51;;;;;;;5.10;2.35;;;;;;;;;;6263584;23;20080;-96
2022/01/29 12:06:43;;;;;;;6.30;3.33;;;3.20;93.30;;;;;;6223988;22;20031;-96
2022/01/29 12:10:05;;;;;;;6.82;2.55;;;;;;;;;;6260733;22;20447;-96
2022/01/29 12:16:02;;;;;;;11.20;2.92;;;;;;;;;;6196355;23;20028;-96
2022/01/29 12:18:40;;;;;;;7.05;3.05;;;;;;;;;;6166025;23;20055;-96
2022/01/29 12:21:37;;;;;;;7.97;3.08;;;3.30;93.60;;;;;;6169638;23;20055;-96
2022/01/29 12:24:08;;;;;;;;;;;;;;;;;;6169598;23;20009;-96
2022/01/29 12:26:45;;;;;;;4.68;2.53;;;;;;;;;;6192570;23;19972;-96
2022/01/29 12:29:16;;;;;;;15.10;5.10;;;;;;;;;;6196023;23;20085;-96
2022/01/29 12:31:57;;;;;;;6.18;2.78;;;;;;;;;;6196003;23;20005;-96
2022/01/29 12:34:29;;;;;;;9.40;3.45;;;;;;;;;;6188794;23;20028;-96
2022/01/29 12:37:30;;;;;;;5.90;2.70;;;4.20;92.90;;;;;;6193012;23;20016;-96
2022/01/29 12:43:09;;;;;;;10.60;4.20;;;;;;;;;;6192389;23;20028;-96
2022/01/29 12:45:58;;;;;;;9.38;4.95;;;;;;;;;;6193954;23;20018;-95
2022/01/29 12:48:25;;;;;;;13.93;4.63;;;;;;;;;;6233990;23;20004;-96
2022/01/29 12:51:03;;;;;;;10.93;4.45;;;;;;;;;;6256207;23;20011;-96
2022/01/29 12:53:43;;;;;;;6.55;3.67;;;;;;;;;;6254216;23;20546;-96
2022/01/29 12:56:18;;;;;;;11.75;4.57;;;;;;;;;;6225234;23;20027;-96
2022/01/29 12:58:51;;;;;;;3.60;3.28;;;;;;;;;;6252420;23;20015;-96
2022/01/29 13:01:17;;;;;;;11.32;5.07;;;;;;;;;;6256104;23;20008;-96
2022/01/29 13:03:43;;;;;;;13.73;5.25;;;;;;;;;;6228800;23;20010;-96
2022/01/29 13:06:13;;;;;;;15.40;5.00;;;;;;;;;;6252214;23;20016;-96
2022/01/29 13:09:12;;;;;;;7.25;3.65;;;;;;;;;;6256810;23;20350;-96
2022/01/29 13:11:42;;;;;;;13.80;4.20;;;;;;;;;;6238549;23;20320;-96
2022/01/29 13:14:12;;;;;;;11.05;4.28;;;;;;;;;;6238503;23;20008;-96
2022/01/29 13:16:42;;;;;;;10.00;4.43;;;;;;;;;;6214108;23;20016;-96
2022/01/29 13:19:17;;;;;;;7.40;4.20;;;;;;;;;;6245203;23;20004;-96
2022/01/29 13:21:50;;;;;;;7.45;3.47;;;;;;;;;;6245035;23;20050;-96
2022/01/29 13:24:26;;;;;;;8.35;3.17;;;;;;;;;;6241879;23;20012;-95
2022/01/29 13:27:10;;;;;;;4.00;2.72;;;;;;;;;;6241122;23;20042;-96
2022/01/29 13:29:51;;;;;;;12.32;3.85;;;;;;;;;;6244661;23;19996;-96
2022/01/29 13:32:49;;;;;;;10.10;4.03;;;;;;;;;;6244119;23;20027;-96
2022/01/29 13:35:21;;;;;;;7.38;3.75;;;;;;;;;;6240999;23;20019;-96
2022/01/29 13:38:00;;;;;;;10.40;3.17;;;;;;;;;;6239724;23;20439;-96
2022/01/29 13:40:58;;;;;;;8.82;3.38;;;;;;;;;;6218237;23;20343;-96
2022/01/29 13:43:30;;;;;;;7.53;2.80;;;;;;;;;;6240627;22;20327;-96
2022/01/29 13:46:21;;;;;;;9.23;3.72;;;;;;;;;;6242274;23;20058;-96
2022/01/29 13:48:58;;;;;;;15.93;5.18;;;;;;;;;;6180002;23;20001;-96
2022/01/29 13:51:40;;;;;;;6.47;4.43;;;;;;;;;;6182299;23;20033;-95
2022/01/29 13:54:24;;;;;;;9.60;4.45;;;;;;;;;;6179649;23;20083;-96
2022/01/29 13:57:06;;;;;;;6.47;3.50;;;;;;;;;;6180013;23;20044;-96
2022/01/29 13:59:32;;;;;;;11.27;3.63;;;;;;;;;;6181533;23;20009;-96
2022/01/29 14:02:08;;;;;;;8.02;4.13;;;;;;;;;;6157163;23;20017;-96
2022/01/29 14:04:49;;;;;;;9.80;3.47;;;;;;;;;;6180666;23;20104;-96
2022/01/29 16:07:36;;;;;;;7.68;3.45;;;;;;;;;;6219396;22;20064;-96
2022/01/29 16:10:02;;;;;;;11.48;3.67;;;;;;;;;;6245420;23;20079;-96
2022/01/29 16:12:32;;;;;;;9.85;3.47;;;;;;;;;;6246535;23;20470;-96
2022/01/29 16:14:58;;;;;;;5.15;2.03;;;;;;;;;;6241492;23;19996;-96
2022/01/29 16:17:27;;;;;;;6.93;3.17;;;;;;;;;;6246131;23;20012;-95
2022/01/29 16:19:53;;;;;;;9.50;3.63;;;;;;;;;;6218349;23;20026;-96
2022/01/29 16:22:20;;;;;;;4.93;2.03;;;;;;;;;;6245364;23;20012;-96
2022/01/29 16:24:46;;;;;;;7.88;2.85;;;;;;;;;;6242838;23;20007;-96
2022/01/29 16:27:12;;;;;;;5.78;3.25;;;;;;;;;;6243665;23;20007;-96
2022/01/29 16:29:39;;;;;;;12.77;3.33;;;;;;;;;;6218422;23;20008;-96
2022/01/29 16:32:05;;;;;;;10.40;3.37;;;;;;;;;;6220118;23;20061;-96
2022/01/29 16:34:31;;;;;;;5.68;2.50;;;;;;;;;;6243135;23;20478;-96
2022/01/29 16:36:57;;;;;;;10.55;3.70;;;;;;;;;;6243256;23;20015;-96
2022/01/29 16:39:24;;;;;;;6.35;2.17;;;;;;;;;;6219303;23;20004;-96
2022/01/29 16:41:50;;;;;;;12.52;3.88;;;;;;;;;;6220244;23;20083;-96
2022/01/29 16:44:18;;;;;;;12.82;3.22;;;;;;;;;;6244867;23;20331;-96
2022/01/29 16:46:43;;;;;;;;;;;;;;;;;;6244813;23;20007;-96
2022/01/29 16:49:10;;;;;;;4.40;2.25;;;;;;;;;;6219417;23;19961;-96
2022/01/29 16:51:36;;;;;;;7.38;4.10;;;;;;;;;;6247865;23;20350;-96
2022/01/29 16:54:02;;;;;;;6.50;3.60;;;;;;;;;;6244348;23;20000;-96
2022/01/29 16:56:35;;;;;;;5.18;2.65;;;;;;;;;;6244760;23;20018;-94
2022/01/29 16:59:02;;;;;;;8.85;3.60;;;;;;;;;;6246920;23;20008;-95
2022/01/29 17:01:31;;;;;;;6.00;3.15;;;;;;;;;;6245803;23;20008;-96
2022/01/29 17:04:22;;;;;;;5.05;3.15;;;;;;;;;;6244549;23;20027;-95
2022/01/29 17:07:03;;;;;;;8.63;3.90;;;;;;;;;;6181257;23;20012;-96
2022/01/29 17:09:29;;;;;;;19.52;6.38;;;;;;;;;;6158698;23;20578;-96
2022/01/29 17:12:01;;;;;;;23.38;8.75;;;;;;;;;;6184938;23;20008;-96
2022/01/29 17:14:27;;;;;;;32.03;10.15;;;;;;;;;;6182086;23;20032;-96
2022/01/29 17:20:06;;;;;;;14.88;6.18;;;;;;;;;;6171080;23;20036;-96
2022/01/29 17:22:35;;;;;;;6.90;3.85;;;;;;;;;;6184707;23;20009;-96
2022/01/29 17:25:01;;;;;;;16.35;4.35;;;;;;;;;;6155509;23;20005;-96
2022/01/29 17:27:30;;;;;;;15.25;5.38;;;;;;;;;;6179105;23;20060;-96
2022/01/29 17:29:56;;;;;;;14.00;6.40;;;;;;;;;;6158960;23;20437;-96
2022/01/29 17:32:28;;;;;;;21.55;7.18;;;;;;;;;;6184415;23;20001;-96
2022/01/29 17:34:54;;;;;;;10.25;4.85;;;;;;;;;;6180383;23;20009;-96
2022/01/29 17:37:29;;;;;;;11.98;4.45;;;;;;;;;;6181984;23;20016;-96
2022/01/29 17:40:01;;;;;;;6.72;3.13;;;;;;;;;;6184605;23;20032;-96
2022/01/29 17:42:32;;;;;;;8.27;2.88;;;;;;;;;;6183401;23;20020;-96
2022/01/29 17:45:11;;;;;;;14.02;4.43;;;;;;;;;;6242009;23;20000;-96
2022/01/29 17:47:46;;;;;;;5.13;2.67;;;;;;;;;;6219435;23;20073;-96
2022/01/29 17:50:39;;;;;;;10.52;4.28;;;;;;;;;;6194520;23;20004;-96
2022/01/29 17:53:06;;;;;;;15.90;4.35;;;;;;;;;;6243645;23;20773;-96
2022/01/29 17:55:41;;;;;;;8.18;3.03;;;;;;;;;;6239932;23;20004;-96
2022/01/29 17:58:13;;;;;;;8.35;3.28;;;;;;;;;;6245537;23;20478;-96
2022/01/29 18:00:47;;;;;;;9.85;3.90;;;;;;;;;;6246514;23;20045;-96
2022/01/29 18:03:19;;;;;;;13.07;3.83;;;;;;;;;;6246040;22;20079;-96
2022/01/29 18:06:12;;;;;;;8.95;4.28;;;;;;;;;;6168823;23;20012;-96
2022/01/29 18:08:44;;;;;;;5.80;4.93;;;;;;;;;;6219805;23;20090;-96
2022/01/29 18:11:16;;;;;;;14.45;5.28;;;;;;;;;;6247250;23;20071;-96
2022/01/29 18:13:45;;;;;;;20.00;6.28;;;;;;;;;;6246654;23;20024;-96
2022/01/29 18:16:12;;;;;;;18.42;6.03;;;;;;;;;;6216595;23;20016;-96
2022/01/29 18:18:41;;;;;;;23.50;8.90;;;;;;;;;;6243733;23;20001;-96
2022/01/29 18:21:07;;;;;;;11.35;6.30;;;;;;;;;;6217281;23;20399;-96
2022/01/29 18:23:56;;;;;;;12.07;5.97;;;;;;;;;;6226647;23;20004;-96
2022/01/29 18:26:23;;;;;;;16.00;5.72;;;;;;;;;;6242690;23;20051;-96
2022/01/29 18:32:03;;;;;;;13.82;6.10;;;;;;;;;;6222323;23;20107;-96
2022/01/29 18:34:36;;;;;;;13.40;7.03;;;;;;;;;;6238993;23;20011;-96
2022/01/29 18:37:21;;;;;;;18.95;5.68;;;;;;;;;;6242944;23;20471;-96
2022/01/29 18:39:55;;;;;;;24.60;6.97;;;;;;;;;;6247574;23;20008;-96
2022/01/29 18:42:27;;;;;;;23.63;6.38;;;;;;;;;;6246960;23;20016;-96
2022/01/29 18:45:21;;;;;;;17.23;5.68;;;;;;;;;;6255945;23;20079;-96
2022/01/29 18:47:48;;;;;;;16.42;6.03;;;;;;;;;;6263546;23;20008;-96
2022/01/29 18:50:17;;;;;;;22.17;8.43;;;;;;;;;;6248553;23;20000;-96
2022/01/29 18:52:43;;;;;;;14.55;6.93;;;;;;;;;;6218999;23;20008;-95
2022/01/29 18:55:12;;;;;;;15.57;7.38;;;;;;;;;;6244126;23;20453;-96
2022/01/29 18:57:41;;;;;;;21.02;7.05;;;;;;;;;;6244579;23;20038;-96
2022/01/29 19:00:08;;;;;;;15.88;6.65;;;;;;;;;;6242476;23;20004;-95
2022/01/29 19:02:34;;;;;;;12.82;7.05;;;;;;;;;;6243143;23;20500;-96
2022/01/29 19:05:01;;;;;;;23.52;9.45;;;;;;;;;;6241940;23;20000;-96
2022/01/29 19:07:28;;;;;;;22.58;9.23;;;;;;;;;;6239792;22;20027;-96
2022/01/29 19:09:54;;;;;;;16.73;6.80;;;;;;;;;;6241743;23;20000;-95
2022/01/29 19:12:22;;;;;;;15.25;5.68;;;;;;;;;;6245716;23;20015;-96
2022/01/29 19:14:53;;;;;;;17.00;6.05;;;;;;;;;;6244298;23;20004;-96
2022/01/29 19:17:26;;;;;;;15.35;6.55;;;;;;;;;;6250236;23;20035;-96
2022/01/29 19:19:58;;;;;;;12.15;6.50;;;;;;;;;;6250653;23;20011;-96
2022/01/29 19:22:31;;;;;;;10.65;5.93;;;;;;;;;;6247677;22;20008;-96
2022/01/29 19:24:57;;;;;;;12.48;5.95;;;;;;;;;;6245806;23;20350;-96
2022/01/29 19:28:00;;;;;;;20.67;6.27;;;4.00;97.60;;;;;;6259500;23;20447;-96
2022/01/29 19:30:29;;;;;;;18.30;6.63;;;;;;;;;;6259520;23;20008;-96
2022/01/29 19:33:32;;;;;;;17.10;8.32;;;;;;;;;;6267698;23;20004;-96
2022/01/29 19:36:15;;;;;;;16.90;7.18;;;;;;;;;;6219705;23;20016;-96
2022/01/29 19:38:48;;;;;;;24.35;9.07;;;;;;;;;;6219297;23;20000;-95
2022/01/29 19:41:14;;;;;;;21.27;8.27;;;;;;;;;;6247742;23;20008;-96
2022/01/29 19:43:40;;;;;;;19.38;7.50;;;;;;;;;;6245572;23;20020;-95
2022/01/29 19:49:04;;;;;;;14.75;6.55;;;;;;;;;;6153967;23;20453;-96
2022/01/29 19:51:36;;;;;;;19.95;6.97;;;;;;;;;;6153270;23;20017;-96
2022/01/29 19:54:05;;;;;;;19.08;6.93;;;;;;;;;;6180923;23;20004;-96
2022/01/29 19:56:38;;;;;;;15.65;6.15;;;;;;;;;;6244312;23;20040;-96
2022/01/29 19:59:11;;;;;;;15.07;6.35;;;;;;;;;;6246467;23;20005;-95
2022/01/29 20:04:36;;;;;;;21.27;5.60;;;;;;;;;;6150760;23;20009;-95
2022/01/29 20:07:08;;;;;;;18.88;9.35;;;;;;;;;;6208518;23;20042;-95
2022/01/29 20:09:41;;;;;;;13.52;6.63;;;;;;;;;;6219086;23;20008;-96
2022/01/29 20:12:16;;;;;;;22.15;6.43;;;;;;;;;;6245958;23;20097;-95
2022/01/29 20:14:49;;;;;;;19.80;6.95;;;;;;;;;;6217089;23;20008;-96
2022/01/29 20:17:15;;;;;;;15.82;6.13;;;;;;;;;;6243259;23;20016;-96
2022/01/29 20:19:44;;;;;;;17.88;5.72;;;;;;;;;;6240230;23;20091;-96
2022/01/29 20:22:19;;;;;;;20.85;5.88;;;;;;;;;;6218622;23;20008;-96
2022/01/29 20:24:52;;;;;;;20.42;5.70;;;;;;;;;;6217507;23;20079;-96
2022/01/29 20:27:24;;;;;;;16.85;6.80;;;;;;;;;;6216595;23;20027;-96
2022/01/29 20:29:51;;;;;;;17.75;7.32;;;;;;;;;;6246298;23;20000;-96
2022/01/29 20:32:23;;;;;;;16.10;6.40;;;;;;;;;;6246293;23;20007;-96
2022/01/29 20:34:49;;;;;;;9.07;4.80;;;;;;;;;;6221341;23;20031;-96
2022/01/29 20:37:21;;;;;;;23.88;5.45;;;;;;;;;;6243675;23;20095;-95
2022/01/29 20:39:47;;;;;;;18.42;5.22;;;;;;;;;;6219308;23;20000;-96
2022/01/29 20:42:21;;;;;;;11.30;4.80;;;;;;;;;;6219027;23;20004;-96
2022/01/29 20:44:54;;;;;;;10.90;5.85;;;;;;;;;;6217188;23;20443;-96
2022/01/29 20:47:26;;;;;;;18.38;4.03;;;;;;;;;;6247166;23;20435;-95
2022/01/29 20:52:53;;;;;;;16.63;5.47;;;;;;;;;;6221124;23;20004;-96
2022/01/29 20:55:33;;;;;;;15.45;5.55;;;;;;;;;;6218052;23;20011;-96
2022/01/29 20:58:03;;;;;;;20.85;7.03;;;;;;;;;;6243223;23;20074;-95
2022/01/29 21:00:44;;;;;;;15.07;6.47;;;;;;;;;;6246265;23;20011;-96
2022/01/29 21:03:15;;;;;;;10.40;4.22;;;;;;;;;;6246170;23;20211;-96
2022/01/29 21:05:44;;;;;;;10.23;3.88;;;;;;;;;;6245283;23;20004;-96
2022/01/29 21:08:11;;;;;;;9.63;4.53;;;;;;;;;;6217565;23;20020;-96
2022/01/29 21:10:37;;;;;;;11.68;5.13;;;;;;;;;;6247637;23;20327;-96
2022/01/29 21:13:09;;;;;;;16.17;5.07;;;;;;;;;;6218316;23;20012;-96
2022/01/29 21:15:35;;;;;;;8.45;4.47;;;;;;;;;;6219441;23;20012;-96
2022/01/29 21:18:07;;;;;;;18.50;6.13;;;;;;;;;;6244097;23;20011;-96
2022/01/29 21:20:33;;;;;;;15.85;5.88;;;;;;;;;;6219792;23;20039;-96
2022/01/29 21:23:22;;;;;;;11.18;5.80;;;;;;;;;;6241913;23;20012;-95
2022/01/29 21:25:48;;;;;;;23.65;6.18;;;;;;;;;;6157318;23;20475;-96
2022/01/29 21:28:31;;;;;;;17.42;5.57;;;;;;;;;;6180208;23;20392;-96
2022/01/29 21:34:26;;;;;;;19.02;6.63;;;;;;;;;;6182074;23;20005;-95
2022/01/29 21:36:54;;;;;;;16.50;5.25;;;;;;;;;;6158233;23;20013;-96
2022/01/29 21:39:26;;;;;;;20.05;6.38;;;;;;;;;;6109104;23;20080;-95
2022/01/29 21:41:53;;;;;;;15.10;6.47;;;;;;;;;;6159291;23;20088;-96
2022/01/29 21:44:27;;;;;;;18.83;6.45;;;;;;;;;;6182546;23;20099;-96
2022/01/29 21:47:02;;;;;;;15.73;5.72;;;;;;;;;;6180387;23;20013;-96
2022/01/29 21:49:35;;;;;;;9.05;4.50;;;;;;;;;;6183319;23;20029;-96
2022/01/29 21:52:06;;;;;;;16.83;6.82;;;;;;;;;;6159047;23;20353;-96
2022/01/29 21:54:37;;;;;;;16.40;5.82;;;;;;;;;;6181445;23;20029;-96
2022/01/29 21:57:03;;;;;;;13.10;6.18;;;;;;;;;;6154415;23;20503;-96
2022/01/29 21:59:32;;;;;;;11.68;5.45;;;;;;;;;;6157069;23;20088;-96
2022/01/29 22:02:13;;;;;;;23.17;7.60;;;;;;;;;;6165932;23;20401;-96
2022/01/29 22:04:46;;;;;;;28.48;9.98;;;;;;;;;;6246296;23;20048;-96
2022/01/29 22:07:18;;;;;;;31.70;9.38;;;;;;;;;;6215683;23;20020;-96
2022/01/29 22:09:56;;;;;;;16.35;6.65;;;;;;;;;;6223925;23;20012;-96
2022/01/29 22:12:23;;;;;;;22.55;9.90;;;;;;;;;;6246086;23;20007;-96
2022/01/29 22:14:52;;;;;;;23.52;9.60;;;;;;;;;;6217674;23;20065;-96
2022/01/29 22:17:21;;;;;;;23.77;9.80;;;;;;;;;;6243652;23;20532;-96
2022/01/29 22:19:50;;;;;;;18.92;7.80;;;;;;;;;;6217273;23;20073;-96
2022/01/29 22:22:16;;;;;;;14.82;5.78;;;;;;;;;;6244871;23;20011;-96
2022/01/29 22:24:43;;;;;;;16.38;7.70;;;;;;;;;;6245131;23;20343;-96
2022/01/29 22:27:19;;;;;;;16.67;5.18;;;;;;;;;;6242768;23;20015;-96
2022/01/29 22:29:50;;;;;;;21.15;6.78;;;;;;;;;;6217300;23;20001;-96
2022/01/29 22:32:28;;;;;;;27.15;7.78;;;;;;;;;;6215613;23;20014;-96
2022/01/29 22:35:01;;;;;;;13.38;5.78;;;;;;;;;;6246594;23;20011;-96
2022/01/29 22:37:33;;;;;;;16.75;5.93;;;;;;;;;;6243684;23;20012;-96
2022/01/29 22:39:59;;;;;;;23.95;8.60;;;;;;;;;;6246748;23;20050;-96
2022/01/29 22:42:31;;;;;;;21.08;7.55;;;;;;;;;;6245553;23;20008;-96
2022/01/29 22:44:58;;;;;;;24.83;6.68;;;;;;;;;;6247750;23;19996;-96
2022/01/29 22:47:40;;;;;;;27.92;9.82;;;;;;;;;;6244899;23;20443;-96
2022/01/29 22:53:07;;;;;;;20.92;5.53;;;;;;;;;;6182641;23;20059;-96
2022/01/29 22:55:33;;;;;;;19.90;6.97;;;;;;;;;;6159069;23;20448;-96
2022/01/29 22:58:11;;;;;;;40.33;11.98;;;;;;;;;;6182458;23;20017;-96
2022/01/29 23:00:41;;;;;;;26.52;9.55;;;;;;;;;;6185855;23;20009;-96
2022/01/29 23:03:10;;;;;;;27.58;7.55;;;;;;;;;;6180018;23;20015;-96
2022/01/29 23:05:36;;;;;;;25.52;7.72;;;;;;;;;;6159528;23;20087;-96
2022/01/29 23:08:10;;;;;;;27.08;9.38;;;;;;;;;;6102521;23;20022;-96
2022/01/29 23:14:37;;;;;;;16.60;7.95;;;;;;;;;;6037070;23;20204;-96
2022/01/29 23:19:46;;;;;;;18.63;5.55;;;;;;;;;;5982339;24;20528;-96
2022/01/29 23:27:50;;;;;;;18.85;8.35;;;;;;;;;;5895650;24;20268;-96
2022/01/29 23:33:47;;;;;;;9.77;4.75;;;;;;;;;;5951973;24;20017;-96
2022/01/29 23:36:13;;;;;;;22.45;7.43;;;;;;;;;;5953405;24;20103;-96
2022/01/29 23:38:45;;;;;;;18.05;6.90;;;;;;;;;;5950751;24;20001;-96
2022/01/29 23:41:13;;;;;;;22.55;8.35;;;;;;;;;;5953967;24;20598;-96
2022/01/29 23:43:52;;;;;;;16.38;6.45;;;;;;;;;;5953607;24;20005;-96
2022/01/29 23:52:01;;;;;;;14.85;6.75;;;;;;;;;;5982157;24;20072;-96
2022/01/29 23:54:36;;;;;;;40.47;8.88;;;;;;;;;;5971864;23;20034;-96
2022/01/29 23:57:08;;;;;;;17.45;6.80;;;;;;;;;;6039423;23;20018;-96
2022/01/29 23:59:52;;;;;;;20.73;6.07;;;;;;;;;;6042946;23;20443;-96
